Terminal Aerodrome Forecast
Issued by NWS Portland, ME

Home | Current Version | Previous Version | Text Only | Print | Product List | Glossary On
Versions: 1 2 3 4 5 6 7 8 9 10 11 12 13 14 15 16 17 18 19 20 21 22 23 24
000
FTUS41 KGYX 281720
TAFCON
TAF
KCON 281720Z 2818/2918 32010G17KT P6SM SCT050
     FM282100 31010KT P6SM BKN250
     FM290000 32002KT P6SM SKC=

USA.gov is the U.S. government's official web portal to all federal, state and local government web resources and services.